Aérodrome :
LOGIN :

S'inscrire | Disclaimer

   EN    FR    IT 

 










Légende :    VFR   VFR Marginal   IFR   IFR Intensif   IFR Très Intensif
Visi : 
Plafond : 
>= 8 km
>= 3000ft
5 à 8 km
1000 à 3000 ft
1500m à 5 km
500 à 1000 ft
800 à 1500m
200 à 500 ft
< 800m
< 200 ft
Symboles :   Orages  Brouillard  Fortes neiges  Fortes précipitations  Vent > 20 kt
SIGMETs :   Divers  Orages  Givrage  Turbulence  Onde Orograph.  Cendres Volcan.






- Altitude de l'aérodrome : 290 ft
- Code IATA : ACI


EGJA - Alderney

METARs EXPIRÉS :
  • 131750Z 30009KT 0200 R26/0450 FG BKN000 18/18 Q1012
  • 131720Z 28010KT 0200 R26/0450 FG BKN000 18/18 Q1012

TAF AMD TAF EGJA
Valide du 13 à 18h jusqu'au 14 à 03h UTC


131722Z 1318/1403 25008KT 1500 BR BKN002 SCT048CB
TEMPO 1318/1400 9999 SCT002
PROB40
TEMPO 1318/1403 SHRA
PROB30
TEMPO 1318/1402 0500 BCFG BKN000



MET'MAP, la Météo Aéronautique d'un coup d'oeil ! - Copyright ORBIFLY Décembre 2007 - Disclaimer

ORBIFLY MET'MAP TEAM :

Programmation & Développement : Alexandra Zaïnal
Sur une idée originale de : Baudouin d'Aumeries
Assistance à la programmation : Marc-Olivier Méhu
Soutien technique & logistique : Manuel Goepfert

Contact : metmap@orbifly.com




SOURCES & CREDITS :

   NOAA